Time;durP1;ratioP1;P1;durP2;ratioP2;P2;SDS_P1;SDS_P2;PMS_P1;PMS_P2;Temp;Humidity;BMP_temperature;BMP_pressure;BME280_temperature;BME280_humidity;BME280_pressure;Samples;Min_cycle;Max_cycle;Signal;HPM_P1;HPM_P2
2021/05/20 00:00:58;;;;;;;11.13;7.38;;;8.60;99.90;;;;;;5098356;28;20028;-70
2021/05/20 00:03:26;;;;;;;16.80;7.63;;;8.60;99.90;;;;;;5098700;28;20032;-69
2021/05/20 00:05:53;;;;;;;12.38;7.32;;;8.50;99.90;;;;;;5098696;28;20028;-69
2021/05/20 00:08:21;;;;;;;11.43;7.28;;;8.50;99.90;;;;;;5098700;28;20020;-69
2021/05/20 00:10:49;;;;;;;15.85;7.60;;;8.40;99.90;;;;;;5098755;28;20070;-69
2021/05/20 00:13:17;;;;;;;14.35;7.82;;;8.40;99.90;;;;;;5098596;28;20420;-69
2021/05/20 00:15:45;;;;;;;15.75;8.10;;;8.40;99.90;;;;;;5114497;28;20492;-69
2021/05/20 00:18:13;;;;;;;17.45;8.27;;;8.30;99.90;;;;;;5098416;28;20089;-69
2021/05/20 00:20:41;;;;;;;13.00;7.13;;;8.30;99.90;;;;;;5097864;28;20027;-69
2021/05/20 00:23:09;;;;;;;14.52;8.27;;;8.30;99.90;;;;;;5097391;28;20077;-69
2021/05/20 00:25:37;;;;;;;13.18;7.40;;;8.30;99.90;;;;;;5097466;28;20023;-69
2021/05/20 00:28:04;;;;;;;13.60;8.45;;;8.20;99.90;;;;;;5096318;28;20111;-69
2021/05/20 00:30:32;;;;;;;15.60;6.57;;;8.20;99.90;;;;;;5098108;28;20039;-69
2021/05/20 00:33:00;;;;;;;12.63;7.57;;;8.20;99.90;;;;;;5097553;28;20382;-69
2021/05/20 00:35:29;;;;;;;10.32;6.57;;;8.10;99.90;;;;;;5097817;28;20073;-70
2021/05/20 00:37:56;;;;;;;13.68;7.20;;;8.00;99.90;;;;;;5097217;28;20028;-69
2021/05/20 00:40:24;;;;;;;9.93;5.90;;;7.90;99.90;;;;;;5097349;28;20016;-69
2021/05/20 00:42:52;;;;;;;18.95;7.75;;;7.90;99.90;;;;;;5097845;28;20419;-69
2021/05/20 00:45:20;;;;;;;13.45;7.32;;;7.80;99.90;;;;;;5098249;28;20024;-69
2021/05/20 00:47:48;;;;;;;14.55;8.27;;;7.70;99.90;;;;;;5097403;28;20076;-69
2021/05/20 00:50:16;;;;;;;16.63;9.23;;;7.60;99.90;;;;;;5096990;28;20390;-69
2021/05/20 00:52:44;;;;;;;23.02;10.27;;;7.50;99.90;;;;;;5118283;28;20044;-69
2021/05/20 00:55:13;;;;;;;17.95;9.18;;;7.40;99.90;;;;;;5100361;28;20015;-69
2021/05/20 00:57:41;;;;;;;20.42;10.43;;;7.40;99.90;;;;;;5118210;28;20047;-69
2021/05/20 01:00:13;;;;;;;21.60;10.73;;;7.30;99.90;;;;;;5118332;28;20023;-69
2021/05/20 01:02:42;;;;;;;18.40;9.02;;;7.30;99.90;;;;;;5117167;28;20023;-69
2021/05/20 01:05:12;;;;;;;16.90;8.82;;;7.20;99.90;;;;;;5117067;28;20084;-69
2021/05/20 01:07:39;;;;;;;13.10;7.85;;;7.20;99.90;;;;;;5117174;28;20027;-69
2021/05/20 01:10:08;;;;;;;13.98;7.63;;;7.20;99.90;;;;;;5099021;28;20033;-69
2021/05/20 01:12:36;;;;;;;16.45;7.63;;;7.10;99.90;;;;;;5099036;28;20061;-69
2021/05/20 01:15:05;;;;;;;15.18;7.88;;;7.10;99.90;;;;;;5117624;28;20111;-70
2021/05/20 01:17:33;;;;;;;17.27;8.10;;;7.10;99.90;;;;;;5098912;28;20024;-69
2021/05/20 01:20:01;;;;;;;16.80;7.75;;;7.10;99.90;;;;;;5117504;28;20027;-69
2021/05/20 01:22:29;;;;;;;18.50;8.70;;;7.10;99.90;;;;;;5117373;28;20115;-69
2021/05/20 01:24:57;;;;;;;17.42;7.88;;;7.10;99.90;;;;;;5117869;28;20019;-69
2021/05/20 01:27:25;;;;;;;12.80;7.32;;;7.10;99.90;;;;;;5117825;28;20480;-69
2021/05/20 01:29:53;;;;;;;14.88;7.70;;;7.10;99.90;;;;;;5118527;28;20028;-69
2021/05/20 01:32:20;;;;;;;14.60;7.45;;;7.20;99.90;;;;;;5117838;28;20094;-69
2021/05/20 01:34:58;;;;;;;22.27;9.30;;;7.20;99.90;;;;;;5117996;28;20022;-69
2021/05/20 01:37:25;;;;;;;15.85;7.60;;;7.20;99.90;;;;;;5100107;28;20359;-69
2021/05/20 01:39:53;;;;;;;12.93;8.02;;;7.30;99.90;;;;;;5099834;28;20024;-69
2021/05/20 01:42:21;;;;;;;15.98;8.27;;;7.30;99.90;;;;;;5116815;28;20016;-69
2021/05/20 01:44:48;;;;;;;17.30;8.35;;;7.30;99.90;;;;;;5116759;28;20411;-69
2021/05/20 01:47:17;;;;;;;15.65;8.27;;;7.30;99.90;;;;;;5117010;28;20026;-69
2021/05/20 01:49:54;;;;;;;17.30;8.25;;;7.30;99.90;;;;;;5116856;28;20103;-69
2021/05/20 01:52:23;;;;;;;17.95;8.68;;;7.40;99.90;;;;;;5116169;28;20123;-69
2021/05/20 01:54:50;;;;;;;14.00;7.97;;;7.40;99.90;;;;;;5117290;28;20016;-70
2021/05/20 01:57:19;;;;;;;16.45;8.45;;;7.40;99.90;;;;;;5117121;28;20024;-69
2021/05/20 01:59:46;;;;;;;14.15;8.55;;;7.40;99.90;;;;;;5121422;28;20012;-70
2021/05/20 02:02:14;;;;;;;18.33;9.02;;;7.30;99.90;;;;;;5121072;28;20024;-69
2021/05/20 02:04:42;;;;;;;17.02;9.90;;;7.40;99.90;;;;;;5121467;28;20020;-69
2021/05/20 02:07:10;;;;;;;19.40;10.00;;;7.40;99.90;;;;;;5121929;28;20023;-69
2021/05/20 02:09:47;;;;;;;17.60;9.77;;;7.40;99.90;;;;;;5121630;28;20020;-69
2021/05/20 02:12:15;;;;;;;20.92;9.75;;;7.40;99.90;;;;;;5121366;28;20073;-69
2021/05/20 02:14:43;;;;;;;16.23;9.20;;;7.40;99.90;;;;;;5121263;28;20024;-69
2021/05/20 02:17:10;;;;;;;17.25;9.18;;;7.40;99.90;;;;;;5121273;28;20096;-69
2021/05/20 02:19:38;;;;;;;19.45;9.63;;;7.40;99.90;;;;;;5121764;28;20020;-69
2021/05/20 02:22:06;;;;;;;30.95;11.60;;;7.40;99.90;;;;;;5121076;28;20072;-69
2021/05/20 02:24:34;;;;;;;21.85;10.85;;;7.50;99.90;;;;;;5120738;28;20031;-69
2021/05/20 02:27:01;;;;;;;18.55;9.77;;;7.50;99.90;;;;;;5120196;28;20016;-69
2021/05/20 02:29:29;;;;;;;19.35;10.23;;;7.50;99.90;;;;;;5120091;28;20023;-69
2021/05/20 02:31:56;;;;;;;19.95;9.40;;;7.50;99.90;;;;;;5120084;28;20098;-69
2021/05/20 02:34:24;;;;;;;18.13;9.40;;;7.40;99.90;;;;;;5119923;28;20030;-69
2021/05/20 02:36:52;;;;;;;18.10;9.10;;;7.40;99.90;;;;;;5101840;28;20431;-69
2021/05/20 02:39:21;;;;;;;20.63;9.25;;;7.40;99.90;;;;;;5120485;28;20024;-69
2021/05/20 02:41:48;;;;;;;16.92;8.98;;;7.30;99.90;;;;;;5119888;28;20059;-69
2021/05/20 02:44:16;;;;;;;17.35;8.27;;;7.20;99.90;;;;;;5120537;28;20019;-69
2021/05/20 02:46:44;;;;;;;15.52;8.30;;;7.10;99.90;;;;;;5120753;28;20018;-69
2021/05/20 02:49:12;;;;;;;14.23;8.25;;;7.10;99.90;;;;;;5120621;28;20020;-69
2021/05/20 02:51:40;;;;;;;16.45;8.57;;;7.00;99.90;;;;;;5120422;28;20040;-69
2021/05/20 02:54:07;;;;;;;19.10;10.27;;;6.90;99.90;;;;;;5121013;28;20322;-69
2021/05/20 02:56:36;;;;;;;15.35;7.93;;;6.80;99.90;;;;;;5121118;28;20342;-69
2021/05/20 02:59:04;;;;;;;14.82;7.82;;;6.80;99.90;;;;;;5102385;28;20416;-69
2021/05/20 03:01:38;;;;;;;16.02;8.10;;;6.70;99.90;;;;;;5120428;28;20035;-69
2021/05/20 03:04:06;;;;;;;16.67;8.25;;;6.60;99.90;;;;;;5119806;28;20027;-69
2021/05/20 03:06:35;;;;;;;15.13;8.30;;;6.50;99.90;;;;;;5119318;28;20020;-69
2021/05/20 03:09:09;;;;;;;15.85;9.27;;;6.50;99.90;;;;;;5117620;28;20043;-69
2021/05/20 03:11:37;;;;;;;16.88;9.02;;;6.50;99.90;;;;;;5119276;28;20100;-69
2021/05/20 03:14:05;;;;;;;16.05;8.63;;;6.40;99.90;;;;;;5101311;28;20327;-69
2021/05/20 03:16:33;;;;;;;17.80;8.48;;;6.40;99.90;;;;;;5119238;28;20518;-69
2021/05/20 03:19:00;;;;;;;21.63;8.60;;;6.30;99.90;;;;;;5119483;28;20035;-69
2021/05/20 03:21:28;;;;;;;16.48;8.68;;;6.30;99.90;;;;;;5118953;28;20102;-69
2021/05/20 03:23:56;;;;;;;18.67;8.90;;;6.30;99.90;;;;;;5101114;28;20059;-69
2021/05/20 03:26:24;;;;;;;19.98;8.98;;;6.20;99.90;;;;;;5119662;28;20022;-69
2021/05/20 03:28:52;;;;;;;26.98;9.95;;;6.20;99.90;;;;;;5120496;28;20026;-69
2021/05/20 03:31:20;;;;;;;82.15;12.25;;;6.20;99.90;;;;;;5101695;28;20089;-69
2021/05/20 03:33:49;;;;;;;56.65;9.68;;;6.20;99.90;;;;;;5120560;28;20303;-69
2021/05/20 03:36:17;;;;;;;123.22;11.50;;;6.10;99.90;;;;;;5119928;28;20471;-69
2021/05/20 03:38:45;;;;;;;62.22;10.57;;;6.10;99.90;;;;;;5119737;28;20327;-69
2021/05/20 03:41:13;;;;;;;35.03;9.98;;;6.10;99.90;;;;;;5119639;28;20023;-69
2021/05/20 03:43:40;;;;;;;31.88;9.48;;;6.00;99.90;;;;;;5120451;28;20277;-69
2021/05/20 03:46:07;;;;;;;15.45;8.30;;;6.10;99.90;;;;;;5100512;28;20024;-69
2021/05/20 03:48:35;;;;;;;15.75;8.85;;;6.10;99.90;;;;;;5100486;28;20411;-70
2021/05/20 03:51:03;;;;;;;23.67;9.60;;;6.10;99.90;;;;;;5118540;28;20090;-70
2021/05/20 03:53:32;;;;;;;14.48;7.78;;;6.10;99.90;;;;;;5118490;28;20357;-69
2021/05/20 03:56:00;;;;;;;16.90;8.30;;;6.10;99.90;;;;;;5118633;28;20054;-69
2021/05/20 03:58:29;;;;;;;15.35;8.35;;;6.10;99.90;;;;;;5118932;28;20023;-69
2021/05/20 04:00:57;;;;;;;16.80;8.88;;;6.10;99.90;;;;;;5118269;28;20328;-69
2021/05/20 04:03:29;;;;;;;30.13;8.40;;;6.10;99.90;;;;;;5118078;28;20028;-69
2021/05/20 04:06:04;;;;;;;21.88;9.50;;;6.10;99.90;;;;;;5118586;28;20297;-69
2021/05/20 04:08:36;;;;;;;14.80;7.88;;;6.10;99.90;;;;;;5119684;28;20102;-69
2021/05/20 04:11:04;;;;;;;24.70;9.43;;;6.10;99.90;;;;;;5119616;28;20020;-69
2021/05/20 04:13:42;;;;;;;15.68;8.43;;;6.10;99.90;;;;;;5118820;28;20029;-69
2021/05/20 04:16:15;;;;;;;16.27;8.40;;;6.10;99.90;;;;;;5100992;28;20023;-69
2021/05/20 04:18:44;;;;;;;16.65;7.85;;;6.20;99.90;;;;;;5100811;28;20028;-69
2021/05/20 04:21:12;;;;;;;14.50;8.07;;;6.20;99.90;;;;;;5118563;28;20055;-69
2021/05/20 04:23:44;;;;;;;17.90;8.48;;;6.20;99.90;;;;;;5118769;28;20316;-69
2021/05/20 04:26:12;;;;;;;16.17;9.45;;;6.30;99.90;;;;;;5118326;28;20065;-69
2021/05/20 04:28:40;;;;;;;15.48;8.38;;;6.40;99.90;;;;;;5117699;28;20288;-70
2021/05/20 04:31:07;;;;;;;14.25;8.23;;;6.40;99.90;;;;;;5117726;28;20099;-70
2021/05/20 04:33:35;;;;;;;19.58;10.02;;;6.50;99.90;;;;;;5117690;28;20026;-70
2021/05/20 04:36:03;;;;;;;18.63;9.68;;;6.60;99.90;;;;;;5117742;28;20024;-70
2021/05/20 04:38:31;;;;;;;22.25;10.75;;;6.70;99.90;;;;;;5117636;28;20028;-70
2021/05/20 04:40:58;;;;;;;20.73;9.88;;;6.80;99.90;;;;;;5117631;28;20032;-69
2021/05/20 04:43:26;;;;;;;17.05;9.80;;;6.80;99.90;;;;;;5117991;28;20052;-69
2021/05/20 04:45:53;;;;;;;27.38;13.85;;;6.90;99.90;;;;;;5099433;28;20116;-69
2021/05/20 04:48:21;;;;;;;26.38;13.13;;;7.00;99.90;;;;;;5100564;28;20020;-69
2021/05/20 04:50:49;;;;;;;26.90;13.27;;;7.10;99.90;;;;;;5118066;28;20042;-69
2021/05/20 04:53:17;;;;;;;20.55;11.10;;;7.20;99.90;;;;;;5100167;28;20024;-69
2021/05/20 04:55:45;;;;;;;23.13;11.18;;;7.30;99.90;;;;;;5118799;28;20019;-70
2021/05/20 04:58:13;;;;;;;19.50;10.55;;;7.40;99.90;;;;;;5100053;28;20114;-69
2021/05/20 05:00:42;;;;;;;19.30;10.90;;;7.40;99.90;;;;;;5118349;28;20062;-69
2021/05/20 05:03:10;;;;;;;20.35;11.18;;;7.50;99.90;;;;;;5118523;28;20024;-69
2021/05/20 05:05:37;;;;;;;18.83;10.40;;;7.60;99.90;;;;;;5118102;28;20088;-69
2021/05/20 05:08:05;;;;;;;21.40;10.65;;;7.60;99.90;;;;;;5117812;28;20015;-69
2021/05/20 05:10:33;;;;;;;22.60;11.00;;;7.70;99.90;;;;;;5099220;28;20047;-69
2021/05/20 05:13:01;;;;;;;22.55;12.13;;;7.70;99.90;;;;;;5098999;28;20063;-69
2021/05/20 05:15:29;;;;;;;23.83;11.88;;;7.80;99.90;;;;;;5117322;28;20335;-70
2021/05/20 05:17:56;;;;;;;20.38;11.40;;;7.80;99.90;;;;;;5117537;28;20016;-72
2021/05/20 05:20:24;;;;;;;22.38;12.63;;;7.80;99.90;;;;;;5117459;28;20102;-72
2021/05/20 05:22:52;;;;;;;21.73;11.35;;;7.90;99.90;;;;;;5116834;28;20026;-72
2021/05/20 05:25:20;;;;;;;20.30;12.40;;;8.00;99.90;;;;;;5117516;28;20344;-71
2021/05/20 05:27:47;;;;;;;23.25;12.38;;;8.00;99.90;;;;;;5099087;28;20401;-72
2021/05/20 05:30:16;;;;;;;21.58;11.85;;;8.10;99.90;;;;;;5117426;28;20420;-71
2021/05/20 05:32:44;;;;;;;22.77;13.18;;;8.20;99.90;;;;;;5119010;28;20024;-72
2021/05/20 05:35:12;;;;;;;21.38;12.15;;;8.30;99.90;;;;;;5103909;28;20020;-72
2021/05/20 05:37:40;;;;;;;18.15;10.93;;;8.40;99.90;;;;;;5103831;28;20077;-70
2021/05/20 05:40:08;;;;;;;21.38;12.82;;;8.50;99.90;;;;;;5122170;28;20107;-73
2021/05/20 05:42:36;;;;;;;21.60;11.18;;;8.60;99.90;;;;;;5121858;28;20323;-72
2021/05/20 05:45:05;;;;;;;19.77;11.02;;;8.70;99.90;;;;;;5121844;28;20028;-72
2021/05/20 05:47:33;;;;;;;18.63;11.07;;;8.80;99.90;;;;;;5121911;28;20016;-72
2021/05/20 05:50:22;;;;;;;17.75;10.15;;;8.80;99.90;;;;;;5103378;28;20023;-72
2021/05/20 05:52:49;;;;;;;19.67;10.95;;;8.90;99.90;;;;;;5120343;28;20056;-73
2021/05/20 05:55:17;;;;;;;20.27;10.85;;;9.00;99.90;;;;;;5120872;28;20023;-72
2021/05/20 05:57:45;;;;;;;15.75;10.00;;;9.00;99.90;;;;;;5120730;28;20023;-74
2021/05/20 06:00:13;;;;;;;16.60;10.75;;;9.10;99.90;;;;;;5102741;28;20072;-72
2021/05/20 06:02:40;;;;;;;18.17;10.63;;;9.20;99.90;;;;;;5120565;28;20023;-72
2021/05/20 06:05:09;;;;;;;18.30;9.90;;;9.30;99.90;;;;;;5120596;28;20044;-73
2021/05/20 06:07:37;;;;;;;19.85;10.57;;;9.30;99.90;;;;;;5121117;28;20016;-72
2021/05/20 06:10:06;;;;;;;15.82;9.98;;;9.40;99.90;;;;;;5102549;28;20026;-73
2021/05/20 06:12:34;;;;;;;14.25;9.45;;;9.40;99.90;;;;;;5120943;28;20450;-73
2021/05/20 06:15:01;;;;;;;15.80;9.88;;;9.50;99.90;;;;;;5121365;28;20050;-74
2021/05/20 06:17:29;;;;;;;14.90;9.57;;;9.50;99.90;;;;;;5121321;28;20012;-74
2021/05/20 06:19:57;;;;;;;19.20;10.82;;;9.60;99.90;;;;;;5121149;28;20442;-76
2021/05/20 06:22:25;;;;;;;18.30;11.10;;;9.60;99.90;;;;;;5103059;28;20407;-72
2021/05/20 06:24:53;;;;;;;19.42;11.20;;;9.60;99.90;;;;;;5121160;28;20038;-72
2021/05/20 06:27:20;;;;;;;19.13;11.93;;;9.70;99.90;;;;;;5121088;28;20026;-72
2021/05/20 06:29:47;;;;;;;22.30;12.45;;;9.80;99.90;;;;;;5121365;28;20016;-72
2021/05/20 06:32:15;;;;;;;19.35;12.18;;;9.90;99.90;;;;;;5085166;28;20032;-72
2021/05/20 06:34:44;;;;;;;23.00;12.55;;;10.00;99.90;;;;;;5120180;28;20069;-72
2021/05/20 06:37:13;;;;;;;19.65;12.55;;;10.20;99.90;;;;;;5120626;28;20019;-72
2021/05/20 06:39:41;;;;;;;18.38;12.35;;;10.40;99.90;;;;;;5120058;28;20047;-72
2021/05/20 06:42:11;;;;;;;17.80;12.27;;;10.50;99.90;;;;;;5120004;28;20106;-72
2021/05/20 06:44:39;;;;;;;20.00;12.52;;;10.80;99.90;;;;;;5120011;28;20034;-72
2021/05/20 06:47:07;;;;;;;17.92;11.05;;;11.00;99.90;;;;;;5120429;28;20020;-72
2021/05/20 06:49:35;;;;;;;16.05;10.90;;;11.30;99.90;;;;;;5120347;28;20353;-72
2021/05/20 06:52:03;;;;;;;16.38;11.13;;;11.40;99.90;;;;;;5120374;28;20044;-72
2021/05/20 06:54:32;;;;;;;16.45;11.25;;;11.60;99.90;;;;;;5120801;28;20020;-72
2021/05/20 06:57:05;;;;;;;17.08;10.82;;;11.80;99.90;;;;;;5120635;28;20024;-72
2021/05/20 07:02:19;;;;;;;17.52;11.75;;;12.00;99.90;;;;;;5120863;28;20051;-72
2021/05/20 07:04:47;;;;;;;21.48;10.43;;;12.10;99.90;;;;;;5120638;28;20032;-72
2021/05/20 07:07:16;;;;;;;17.38;11.68;;;12.20;99.90;;;;;;5120487;28;20015;-72
2021/05/20 07:09:44;;;;;;;16.15;11.02;;;12.20;99.90;;;;;;5120639;28;20015;-72
2021/05/20 07:12:13;;;;;;;17.52;11.95;;;12.20;99.90;;;;;;5119380;28;20028;-72
2021/05/20 07:14:43;;;;;;;15.25;10.45;;;12.30;99.90;;;;;;5119483;28;20431;-72
2021/05/20 07:17:11;;;;;;;16.15;10.98;;;12.30;99.90;;;;;;5119908;28;20031;-72
2021/05/20 07:19:39;;;;;;;14.68;10.02;;;12.50;99.90;;;;;;5101345;28;20444;-72
2021/05/20 07:22:07;;;;;;;18.20;10.70;;;12.60;99.90;;;;;;5119136;28;20030;-72
2021/05/20 07:24:35;;;;;;;14.35;9.45;;;12.60;99.90;;;;;;5119140;28;20024;-72
2021/05/20 07:27:03;;;;;;;14.30;10.23;;;12.60;99.90;;;;;;5119390;28;20099;-72
2021/05/20 07:29:31;;;;;;;17.25;9.57;;;12.70;99.90;;;;;;5119241;28;20024;-72
2021/05/20 07:31:58;;;;;;;9.90;7.10;;;12.80;99.90;;;;;;5119733;28;20102;-72
2021/05/20 07:34:26;;;;;;;13.27;9.10;;;12.90;99.90;;;;;;5101811;28;20038;-72
2021/05/20 07:36:54;;;;;;;13.65;8.07;;;12.90;99.90;;;;;;5120091;28;20319;-72
2021/05/20 07:39:22;;;;;;;15.38;8.88;;;13.00;99.90;;;;;;5119754;28;20070;-72
2021/05/20 07:41:50;;;;;;;12.43;8.30;;;13.10;99.90;;;;;;5119775;28;20019;-72
2021/05/20 07:44:17;;;;;;;11.80;6.50;;;13.10;99.90;;;;;;5120138;28;20023;-72
2021/05/20 07:46:45;;;;;;;12.98;7.32;;;13.20;99.90;;;;;;5120195;28;20019;-72
2021/05/20 07:49:13;;;;;;;12.52;7.28;;;13.40;99.90;;;;;;5101474;28;20026;-72
2021/05/20 07:51:40;;;;;;;12.27;7.85;;;13.50;99.90;;;;;;5118341;28;20044;-72
2021/05/20 07:54:09;;;;;;;12.98;8.20;;;13.60;99.90;;;;;;5118785;28;20028;-72
2021/05/20 07:56:37;;;;;;;12.05;7.38;;;13.70;99.90;;;;;;5099871;28;20024;-72
2021/05/20 07:59:04;;;;;;;12.35;7.15;;;13.80;99.90;;;;;;5118542;28;20110;-72
2021/05/20 08:01:34;;;;;;;9.85;6.30;;;14.00;99.90;;;;;;5118348;28;20027;-72
2021/05/20 08:04:10;;;;;;;10.35;7.50;;;14.10;99.90;;;;;;5118495;28;20030;-72
2021/05/20 08:11:52;;;;;;;14.77;7.82;;;13.90;99.90;;;;;;5118624;28;20023;-72
2021/05/20 08:14:20;;;;;;;11.63;7.85;;;13.80;99.90;;;;;;5119811;28;20023;-72
2021/05/20 08:16:47;;;;;;;12.23;8.00;;;13.90;99.90;;;;;;5119062;28;20069;-72
2021/05/20 08:19:16;;;;;;;11.82;7.80;;;13.90;99.90;;;;;;5118862;28;20384;-72
2021/05/20 08:21:43;;;;;;;12.02;7.43;;;13.80;99.90;;;;;;5119521;28;20057;-72
2021/05/20 08:24:12;;;;;;;13.90;7.78;;;13.80;99.90;;;;;;5119252;28;20020;-72
2021/05/20 08:26:40;;;;;;;12.07;8.13;;;13.70;99.90;;;;;;5119146;28;20098;-72
2021/05/20 08:29:08;;;;;;;15.88;9.07;;;13.60;99.90;;;;;;5100755;28;20434;-72
2021/05/20 08:31:37;;;;;;;12.15;8.45;;;13.60;99.90;;;;;;5118760;28;20020;-72
2021/05/20 08:34:05;;;;;;;12.07;8.40;;;13.50;99.90;;;;;;5117807;28;20024;-72
2021/05/20 08:36:33;;;;;;;14.45;8.52;;;13.50;99.90;;;;;;5100363;28;20050;-72
2021/05/20 08:39:02;;;;;;;15.98;7.80;;;13.60;99.90;;;;;;5117594;28;20347;-72
2021/05/20 08:41:30;;;;;;;16.70;8.43;;;13.70;99.90;;;;;;5117715;28;20027;-72
2021/05/20 08:43:58;;;;;;;15.25;8.98;;;13.80;99.90;;;;;;5099448;28;20027;-72
2021/05/20 08:46:27;;;;;;;11.95;7.78;;;14.00;99.90;;;;;;5118070;28;20312;-72
2021/05/20 08:48:55;;;;;;;16.48;9.43;;;14.00;99.90;;;;;;5117570;28;20049;-72
2021/05/20 08:51:23;;;;;;;13.65;8.15;;;14.10;99.90;;;;;;5117182;28;20075;-72
2021/05/20 08:53:51;;;;;;;15.63;8.98;;;14.20;99.90;;;;;;5118066;28;20412;-72
2021/05/20 08:56:19;;;;;;;14.70;8.82;;;14.20;99.90;;;;;;5119058;28;20399;-72
2021/05/20 08:58:47;;;;;;;15.00;9.18;;;14.20;99.90;;;;;;5118328;28;20055;-72
2021/05/20 09:01:33;;;;;;;12.95;9.15;;;14.30;99.90;;;;;;5100509;28;20102;-72
2021/05/20 09:04:02;;;;;;;14.15;8.43;;;14.50;99.90;;;;;;5118717;28;20023;-73
2021/05/20 09:06:51;;;;;;;14.43;8.27;;;14.70;99.90;;;;;;5099881;28;20031;-72
2021/05/20 09:09:24;;;;;;;16.55;8.70;;;14.80;99.90;;;;;;5118270;28;20016;-72
2021/05/20 09:11:57;;;;;;;17.25;9.50;;;14.90;99.90;;;;;;5117845;28;20024;-72
2021/05/20 09:14:33;;;;;;;13.73;9.60;;;15.00;99.90;;;;;;5117184;28;20423;-72
2021/05/20 09:17:18;;;;;;;12.88;9.32;;;15.20;99.90;;;;;;5117734;28;20053;-72
2021/05/20 09:19:54;;;;;;;12.15;7.50;;;15.20;99.90;;;;;;5117086;28;20041;-72
2021/05/20 09:22:22;;;;;;;13.25;7.15;;;15.20;99.90;;;;;;5117537;28;20416;-72
2021/05/20 09:24:59;;;;;;;15.23;7.78;;;15.20;99.60;;;;;;5117431;28;20031;-72
2021/05/20 09:27:37;;;;;;;13.13;6.93;;;15.20;99.90;;;;;;5117599;28;20103;-72
2021/05/20 09:30:24;;;;;;;13.60;8.27;;;15.20;99.90;;;;;;5116971;28;20024;-72
2021/05/20 09:32:57;;;;;;;12.75;7.25;;;15.30;99.80;;;;;;5117262;28;20023;-72
2021/05/20 09:35:30;;;;;;;11.98;6.93;;;15.20;99.40;;;;;;5117680;28;20027;-72
2021/05/20 09:38:01;;;;;;;10.27;6.70;;;15.10;98.00;;;;;;5117887;28;20035;-72
2021/05/20 09:40:34;;;;;;;15.55;7.53;;;15.10;97.30;;;;;;5117903;28;20020;-72
2021/05/20 09:43:14;;;;;;;11.70;7.82;;;15.10;98.60;;;;;;5118283;28;20024;-73
2021/05/20 09:45:41;;;;;;;13.13;8.23;;;15.10;99.40;;;;;;5117882;28;20020;-72
2021/05/20 09:48:10;;;;;;;20.23;9.73;;;15.20;99.70;;;;;;5117749;28;20047;-72
2021/05/20 09:50:43;;;;;;;12.18;7.68;;;15.10;99.90;;;;;;5117424;28;20483;-72
2021/05/20 09:53:18;;;;;;;11.15;7.32;;;15.00;99.90;;;;;;5117689;28;20057;-72
2021/05/20 09:55:56;;;;;;;11.88;6.68;;;14.90;99.70;;;;;;5098507;28;20465;-72
2021/05/20 09:58:34;;;;;;;12.18;7.55;;;14.80;99.10;;;;;;5098547;28;20034;-72
2021/05/20 10:01:03;;;;;;;11.43;7.53;;;14.60;99.50;;;;;;5116813;28;20118;-73
2021/05/20 10:03:36;;;;;;;12.90;8.35;;;14.50;99.80;;;;;;5117018;28;20023;-84
2021/05/20 10:06:05;;;;;;;11.73;7.75;;;14.50;99.90;;;;;;5116510;28;20016;-73
2021/05/20 10:08:35;;;;;;;12.73;7.85;;;14.50;99.90;;;;;;5116870;28;20020;-75
2021/05/20 10:11:04;;;;;;;13.30;8.63;;;14.40;99.90;;;;;;5116791;28;20320;-75
2021/05/20 10:13:32;;;;;;;13.52;8.20;;;14.40;99.90;;;;;;5116530;28;20073;-75
2021/05/20 10:16:01;;;;;;;13.00;7.80;;;14.40;99.90;;;;;;5098930;28;20020;-75
2021/05/20 10:18:29;;;;;;;9.35;6.20;;;14.50;99.90;;;;;;5100085;28;20394;-74
2021/05/20 10:21:03;;;;;;;13.50;7.53;;;14.60;99.20;;;;;;5121488;28;20051;-74
2021/05/20 10:23:32;;;;;;;14.15;8.27;;;14.70;98.40;;;;;;5103056;28;20047;-70
2021/05/20 10:26:00;;;;;;;10.68;7.43;;;14.80;98.20;;;;;;5121431;28;20095;-69
2021/05/20 10:28:28;;;;;;;9.52;5.55;;;14.80;99.80;;;;;;5121253;28;20107;-71
2021/05/20 10:30:57;;;;;;;10.25;7.18;;;14.80;96.40;;;;;;5121324;28;20044;-73
2021/05/20 10:33:30;;;;;;;9.40;6.18;;;14.80;96.80;;;;;;5121051;28;20031;-74
2021/05/20 10:36:00;;;;;;;18.67;8.98;;;14.90;98.20;;;;;;5120314;28;20073;-74
2021/05/20 10:38:31;;;;;;;17.23;9.20;;;15.00;97.60;;;;;;5119875;28;20032;-72
2021/05/20 10:41:26;;;;;;;22.48;11.13;;;15.10;97.80;;;;;;5120610;28;20125;-74
2021/05/20 10:44:06;;;;;;;21.90;11.23;;;15.20;98.30;;;;;;5112050;28;20092;-74
2021/05/20 10:47:04;;;;;;;14.57;8.73;;;15.20;97.30;;;;;;5120441;28;20031;-73
2021/05/20 10:50:01;;;;;;;11.63;7.32;;;15.20;97.20;;;;;;5119855;28;20073;-75
2021/05/20 10:52:38;;;;;;;13.63;7.68;;;15.10;96.90;;;;;;5081248;28;20044;-75
2021/05/20 10:55:08;;;;;;;19.17;8.75;;;15.10;98.00;;;;;;5099771;28;20028;-74
2021/05/20 10:57:55;;;;;;;9.60;5.60;;;15.10;97.10;;;;;;5099732;28;20476;-74
2021/05/20 11:00:37;;;;;;;14.80;6.55;;;15.10;96.20;;;;;;5099040;28;20027;-74
2021/05/20 11:03:05;;;;;;;10.98;6.15;;;15.10;96.70;;;;;;5100233;28;20024;-72
2021/05/20 11:05:43;;;;;;;9.77;5.00;;;15.10;96.10;;;;;;5100053;28;20016;-73
2021/05/20 11:08:31;;;;;;;11.35;6.22;;;15.20;95.20;;;;;;5099155;28;20343;-72
2021/05/20 11:11:00;;;;;;;12.77;5.60;;;15.30;95.10;;;;;;5100009;28;20049;-74
2021/05/20 11:13:37;;;;;;;9.40;5.78;;;15.40;95.80;;;;;;5100451;28;20024;-74
2021/05/20 11:16:37;;;;;;;8.48;5.00;;;15.60;95.10;;;;;;5100321;28;20028;-75
2021/05/20 11:21:56;;;;;;;10.18;5.80;;;15.80;93.60;;;;;;5098797;28;20347;-75
2021/05/20 11:24:29;;;;;;;12.27;6.18;;;15.70;93.50;;;;;;5098799;28;20028;-74
2021/05/20 11:27:02;;;;;;;8.52;5.13;;;15.60;94.50;;;;;;5098666;28;20104;-74
2021/05/20 11:29:35;;;;;;;9.50;5.32;;;15.50;93.60;;;;;;5098941;28;20020;-74
2021/05/20 11:32:25;;;;;;;9.98;5.53;;;15.60;93.20;;;;;;5096900;28;20024;-72
2021/05/20 11:37:37;;;;;;;8.65;5.20;;;15.80;93.80;;;;;;5098518;28;20479;-72
2021/05/20 11:40:07;;;;;;;7.72;4.85;;;15.80;92.30;;;;;;5099299;28;20103;-73
2021/05/20 11:42:38;;;;;;;9.95;5.88;;;16.00;92.00;;;;;;5099699;28;20024;-72
2021/05/20 11:45:06;;;;;;;7.22;4.63;;;16.20;90.90;;;;;;5099892;28;20098;-72
2021/05/20 11:47:35;;;;;;;8.75;5.60;;;16.40;91.60;;;;;;5099737;28;20012;-72
2021/05/20 11:50:12;;;;;;;9.23;5.15;;;16.60;90.00;;;;;;5099022;28;20442;-72
2021/05/20 11:52:41;;;;;;;7.72;4.82;;;17.00;89.50;;;;;;5097750;28;20040;-74
2021/05/20 11:55:09;;;;;;;10.05;6.50;;;17.30;88.60;;;;;;5099587;28;20024;-76
2021/05/20 11:57:37;;;;;;;8.85;5.25;;;17.40;84.00;;;;;;5099146;28;20107;-76
2021/05/20 12:00:05;;;;;;;10.00;6.00;;;17.40;86.00;;;;;;5098119;28;20016;-69
2021/05/20 12:02:38;;;;;;;9.45;5.45;;;17.20;83.50;;;;;;5098160;28;20020;-75
2021/05/20 12:05:12;;;;;;;8.80;5.88;;;17.00;85.10;;;;;;5098199;28;20020;-77
2021/05/20 12:07:41;;;;;;;10.43;5.78;;;16.80;86.40;;;;;;5098120;28;20024;-76
2021/05/20 12:10:18;;;;;;;11.85;7.10;;;16.80;88.00;;;;;;5113881;28;20085;-75
2021/05/20 12:13:00;;;;;;;9.70;5.57;;;16.90;86.00;;;;;;5098446;28;20026;-75
2021/05/20 12:15:30;;;;;;;13.45;7.03;;;16.90;83.20;;;;;;5095540;28;20377;-75
2021/05/20 12:17:59;;;;;;;9.10;5.90;;;17.00;84.20;;;;;;5097947;28;20023;-75
2021/05/20 12:20:27;;;;;;;8.60;4.93;;;17.10;85.80;;;;;;5097864;28;20016;-75
2021/05/20 12:22:55;;;;;;;12.93;7.00;;;17.30;80.10;;;;;;5098927;28;20020;-73
2021/05/20 12:25:26;;;;;;;10.52;5.65;;;17.40;81.60;;;;;;5098473;28;20297;-73
2021/05/20 12:27:56;;;;;;;10.85;6.75;;;17.50;82.90;;;;;;5097217;28;20024;-75
2021/05/20 12:30:25;;;;;;;11.70;5.85;;;17.80;76.10;;;;;;5098613;28;20053;-75
2021/05/20 12:32:54;;;;;;;13.77;5.95;;;18.10;77.20;;;;;;5098783;28;20027;-74
2021/05/20 12:35:21;;;;;;;10.02;5.93;;;18.40;73.10;;;;;;5098195;28;20016;-74
2021/05/20 12:38:11;;;;;;;10.77;6.68;;;18.60;76.10;;;;;;5098550;28;20024;-75
2021/05/20 12:40:59;;;;;;;9.43;5.78;;;19.00;75.40;;;;;;5097887;28;20116;-74
2021/05/20 12:43:37;;;;;;;10.00;5.72;;;19.50;72.50;;;;;;5097654;28;20081;-74
2021/05/20 12:46:15;;;;;;;10.40;6.00;;;19.90;68.90;;;;;;5097556;28;20028;-75
2021/05/20 12:48:46;;;;;;;7.50;5.13;;;20.40;71.00;;;;;;5097241;28;20023;-73
2021/05/20 12:51:17;;;;;;;11.63;5.63;;;20.90;65.70;;;;;;5103268;28;20104;-75
2021/05/20 12:53:54;;;;;;;11.48;5.88;;;21.20;63.90;;;;;;5118076;28;20020;-75
2021/05/20 12:56:22;;;;;;;10.07;5.68;;;21.50;61.90;;;;;;5117429;28;20024;-75
2021/05/20 12:58:56;;;;;;;11.00;5.82;;;21.90;59.60;;;;;;5099264;28;20076;-76
2021/05/20 13:01:28;;;;;;;8.15;5.38;;;22.00;59.60;;;;;;5117247;28;20028;-74
2021/05/20 13:03:58;;;;;;;11.15;6.13;;;22.10;60.80;;;;;;5099632;28;20034;-75
2021/05/20 13:06:31;;;;;;;8.43;4.97;;;22.30;60.50;;;;;;5118231;28;20424;-75
2021/05/20 13:09:12;;;;;;;10.40;5.20;;;22.40;58.70;;;;;;5118433;28;20076;-76